Time;durP1;ratioP1;P1;durP2;ratioP2;P2;SDS_P1;SDS_P2;PMS_P1;PMS_P2;Temp;Humidity;BMP_temperature;BMP_pressure;BME280_temperature;BME280_humidity;BME280_pressure;Samples;Min_cycle;Max_cycle;Signal;HPM_P1;HPM_P2
2023/11/13 00:01:40;;;;;;;3.67;1.23;;;;;;;-145.69;68.07;52299.81;5116149;28;20671;-80
2023/11/13 00:04:06;;;;;;;4.63;1.10;;;;;;;-145.69;67.32;52270.13;5116414;28;20197;-79
2023/11/13 00:06:33;;;;;;;1.10;0.80;;;;;;;-145.69;67.65;52246.34;5116282;28;20264;-80
2023/11/13 00:08:59;;;;;;;8.77;1.40;;;;;;;-145.69;67.58;52222.59;5116407;28;20202;-80
2023/11/13 00:11:27;;;;;;;6.73;1.20;;;;;;;-145.69;67.64;52260.22;5116219;28;20237;-79
2023/11/13 00:13:54;;;;;;;3.53;1.30;;;;;;;-145.69;67.67;52240.41;5116212;28;20209;-79
2023/11/13 00:16:20;;;;;;;4.07;1.37;;;;;;;-145.69;67.97;52268.13;5116233;28;20198;-80
2023/11/13 00:18:47;;;;;;;6.13;1.40;;;;;;;-145.69;68.06;52270.13;5116016;28;20198;-80
2023/11/13 00:21:15;;;;;;;4.17;1.07;;;;;;;-145.69;68.00;52242.38;5115745;28;20194;-79
2023/11/13 00:23:43;;;;;;;1.20;0.80;;;;;;;-145.69;67.87;52258.22;5115970;28;20193;-80
2023/11/13 00:26:09;;;;;;;8.50;1.20;;;;;;;-145.69;67.77;52264.16;5115626;28;20232;-80
2023/11/13 00:28:36;;;;;;;2.70;0.97;;;;;;;-145.69;68.01;52234.47;5116172;28;20209;-80
2023/11/13 00:31:03;;;;;;;5.50;1.10;;;;;;;-145.69;67.65;52246.34;5115639;28;20190;-79
2023/11/13 00:33:30;;;;;;;3.60;0.90;;;;;;;-145.69;67.88;52254.28;5115828;28;20270;-81
2023/11/13 00:35:57;;;;;;;4.13;0.90;;;;;;;-145.69;68.43;52252.28;5115881;28;20205;-80
2023/11/13 00:38:23;;;;;;;2.27;0.87;;;;;;;-145.69;67.82;52276.06;5115721;28;20201;-80
2023/11/13 00:40:50;;;;;;;2.90;1.10;;;;;;;-145.69;68.58;52258.22;5115470;28;20201;-80
2023/11/13 00:43:17;;;;;;;4.33;0.90;;;;;;;-145.69;68.45;52254.28;5115583;27;20709;-79
2023/11/13 00:45:45;;;;;;;3.50;1.00;;;;;;;-145.69;68.46;52246.34;5115707;28;20315;-80
2023/11/13 00:48:12;;;;;;;2.10;1.10;;;;;;;-145.69;68.54;52289.91;5115437;27;20201;-80
2023/11/13 00:50:39;;;;;;;3.93;0.93;;;;;;;-145.69;67.95;52254.28;5115198;28;20706;-79
2023/11/13 00:53:05;;;;;;;5.07;1.40;;;;;;;-145.69;68.43;52254.28;5115277;28;20790;-80
2023/11/13 00:55:32;;;;;;;5.77;1.07;;;;;;;-145.69;68.57;52289.91;5115636;28;20224;-80
2023/11/13 00:57:59;;;;;;;4.17;1.10;;;;;;;-145.69;68.82;52285.97;5114979;28;20568;-79
2023/11/13 01:00:26;;;;;;;3.40;0.73;;;;;;;-145.69;68.29;52266.16;5115513;28;20198;-80
2023/11/13 01:02:54;;;;;;;6.50;0.97;;;;;;;-145.69;68.66;52291.91;5115162;28;20209;-80
2023/11/13 01:05:21;;;;;;;2.40;1.10;;;;;;;-145.69;68.22;52250.31;5115183;27;20599;-80
2023/11/13 01:07:47;;;;;;;2.40;0.83;;;;;;;-145.69;68.65;52280.00;5113089;27;20638;-80
2023/11/13 01:10:14;;;;;;;3.30;0.70;;;;;;;-145.69;69.02;52266.16;5096201;28;20201;-80
2023/11/13 01:12:41;;;;;;;1.53;0.73;;;;;;;-145.69;68.72;52242.38;5114365;28;20201;-80
2023/11/13 01:15:09;;;;;;;2.73;0.90;;;;;;;-145.69;68.67;52246.34;5114906;28;20289;-79
2023/11/13 01:17:36;;;;;;;3.30;0.80;;;;;;;-145.69;68.82;52246.34;5115145;28;20716;-79
2023/11/13 01:20:05;;;;;;;0.83;0.70;;;;;;;-145.69;68.70;52262.19;5114269;28;20192;-79
2023/11/13 01:22:32;;;;;;;3.10;0.70;;;;;;;-145.69;68.65;52246.34;5115265;28;20258;-79
2023/11/13 01:24:59;;;;;;;3.07;0.60;;;;;;;-145.69;68.80;52274.06;5114923;28;20601;-79
2023/11/13 01:27:25;;;;;;;3.23;0.87;;;;;;;-145.69;68.26;52266.16;5114957;28;20201;-80
2023/11/13 01:29:52;;;;;;;1.20;0.50;;;;;;;-145.69;68.47;52264.16;5114730;28;20563;-80
2023/11/13 01:32:18;;;;;;;1.70;0.60;;;;;;;-145.69;68.63;52232.50;5114658;28;20201;-79
2023/11/13 01:34:45;;;;;;;3.70;0.73;;;;;;;-145.69;68.87;52266.16;5114156;28;20193;-80
2023/11/13 01:37:14;;;;;;;3.20;0.67;;;;;;;-145.69;69.06;52258.22;5114828;28;20208;-79
2023/11/13 01:39:40;;;;;;;1.17;0.77;;;;;;;-145.69;68.90;52244.38;5114281;28;20383;-81
2023/11/13 01:42:07;;;;;;;1.97;0.60;;;;;;;-145.69;69.88;52250.31;5114568;27;20227;-80
2023/11/13 01:44:34;;;;;;;1.90;0.70;;;;;;;-145.69;69.39;52228.53;5114449;28;20216;-79
2023/11/13 01:47:00;;;;;;;1.17;0.60;;;;;;;-145.69;70.00;52280.00;5114428;28;20252;-80
2023/11/13 01:49:27;;;;;;;0.80;0.67;;;;;;;-145.69;70.16;52246.34;5113926;28;20651;-79
2023/11/13 01:51:54;;;;;;;2.80;0.60;;;;;;;-145.69;69.81;52278.03;5114506;28;20193;-80
2023/11/13 01:54:23;;;;;;;0.80;0.50;;;;;;;-145.69;69.19;52222.59;5114357;28;20270;-80
2023/11/13 01:56:52;;;;;;;0.93;0.70;;;;;;;-145.69;69.39;52242.38;5114162;28;20209;-80
2023/11/13 01:59:18;;;;;;;0.93;0.60;;;;;;;-145.69;70.18;52258.22;5114365;28;20197;-80
2023/11/13 02:01:45;;;;;;;2.60;0.60;;;;;;;-145.69;69.60;52250.31;5113820;28;20208;-80
2023/11/13 02:04:12;;;;;;;5.30;0.80;;;;;;;-145.69;69.59;52236.44;5113856;28;20246;-79
2023/11/13 02:06:38;;;;;;;2.57;0.90;;;;;;;-145.69;69.62;52268.13;5113465;28;20232;-80
2023/11/13 02:09:09;;;;;;;5.27;1.47;;;;;;;-145.69;69.49;52256.25;5114072;28;20197;-80
2023/11/13 02:11:38;;;;;;;1.63;0.80;;;;;;;-145.69;68.97;52230.50;5113957;28;20201;-80
2023/11/13 02:14:05;;;;;;;4.73;1.10;;;;;;;-145.69;68.53;52242.38;5114044;28;20201;-80
2023/11/13 02:16:33;;;;;;;6.70;1.20;;;;;;;-145.69;68.58;52206.75;5113648;28;20200;-80
2023/11/13 02:18:59;;;;;;;8.02;1.08;;;;;;;-145.69;69.14;52262.19;5113439;28;20205;-81
2023/11/13 02:21:26;;;;;;;9.17;1.37;;;;;;;-145.69;68.45;52234.47;5113947;28;20200;-80
2023/11/13 02:23:55;;;;;;;7.88;1.27;;;;;;;-145.69;68.34;52246.34;5113725;28;20201;-81
2023/11/13 02:26:24;;;;;;;8.77;1.40;;;;;;;-145.69;68.08;52222.59;5113404;28;20227;-80
2023/11/13 02:28:50;;;;;;;3.17;1.05;;;;;;;-145.69;67.96;52226.53;5113615;28;20242;-80
2023/11/13 02:31:17;;;;;;;10.45;1.40;;;;;;;-145.69;68.34;52250.31;5113743;28;20564;-79
2023/11/13 02:33:44;;;;;;;4.85;1.20;;;;;;;-145.69;68.47;52230.50;5113670;28;20202;-79
2023/11/13 02:36:10;;;;;;;4.70;1.38;;;;;;;-145.69;68.71;52270.13;5113063;28;20629;-80
2023/11/13 02:38:37;;;;;;;9.68;1.60;;;;;;;-145.69;67.75;52254.28;5113476;28;20201;-79
2023/11/13 02:41:05;;;;;;;6.15;1.67;;;;;;;-145.69;67.90;52250.31;5113142;28;20213;-79
2023/11/13 02:43:31;;;;;;;7.43;1.33;;;;;;;-145.69;68.08;52244.38;5112703;28;20189;-81
2023/11/13 02:45:58;;;;;;;7.07;1.40;;;;;;;-145.69;67.94;52270.13;5112646;28;20221;-80
2023/11/13 02:48:25;;;;;;;7.07;1.35;;;;;;;-145.69;67.51;52234.47;5112842;28;20200;-80
2023/11/13 02:50:51;;;;;;;8.23;2.20;;;;;;;-145.69;68.05;52254.28;5113067;28;20190;-80
2023/11/13 02:53:18;;;;;;;14.10;2.17;;;;;;;-145.69;68.08;52264.16;5113426;28;20204;-81
2023/11/13 02:55:48;;;;;;;13.43;1.77;;;;;;;-145.69;67.83;52216.66;5113439;28;20300;-80
2023/11/13 02:58:21;;;;;;;8.65;1.27;;;;;;;-145.69;67.53;52236.44;5112858;28;20209;-80
2023/11/13 03:00:47;;;;;;;10.25;1.42;;;;;;;-145.69;67.34;52258.22;5113156;28;20660;-80
2023/11/13 03:03:14;;;;;;;13.05;1.80;;;;;;;-145.69;67.48;52256.25;5113393;28;20201;-80
2023/11/13 03:05:43;;;;;;;9.52;1.85;;;;;;;-145.69;67.41;52238.44;5112903;28;20575;-80
2023/11/13 03:08:11;;;;;;;7.57;1.83;;;;;;;-145.69;67.05;52246.34;5096104;28;20740;-80
2023/11/13 03:10:38;;;;;;;10.38;1.90;;;;;;;-145.69;66.83;52256.25;5113300;28;20205;-80
2023/11/13 03:13:06;;;;;;;15.90;1.98;;;;;;;-145.69;67.34;52254.28;5113170;28;20204;-80
2023/11/13 03:15:34;;;;;;;12.32;2.42;;;;;;;-145.69;67.00;52250.31;5117505;28;20201;-80
2023/11/13 03:18:03;;;;;;;12.77;1.90;;;;;;;-145.69;67.24;52242.38;5116877;28;20201;-80
2023/11/13 03:20:30;;;;;;;6.88;1.50;;;;;;;-145.69;66.28;52248.34;5116848;28;20197;-80
2023/11/13 03:22:56;;;;;;;14.02;2.00;;;;;;;-145.69;66.11;52246.34;5117071;28;20247;-81
2023/11/13 03:25:23;;;;;;;13.80;1.92;;;;;;;-145.69;65.72;52230.50;5116916;28;20258;-80
2023/11/13 03:27:50;;;;;;;8.48;1.70;;;;;;;-145.69;65.76;52258.22;5116932;28;20679;-81
2023/11/13 03:30:17;;;;;;;11.90;2.70;;;;;;;-145.69;65.93;52270.13;5117218;28;20565;-80
2023/11/13 03:32:44;;;;;;;8.45;2.10;;;;;;;-145.69;65.46;52240.41;5117190;28;20198;-80
2023/11/13 03:35:16;;;;;;;15.13;2.75;;;;;;;-145.69;65.34;52238.44;5117157;28;20205;-79
2023/11/13 03:37:43;;;;;;;17.95;3.42;;;;;;;-145.69;65.99;52260.22;5116733;28;20225;-80
2023/11/13 03:40:12;;;;;;;16.42;2.10;;;;;;;-145.69;65.33;52214.66;5116661;28;20439;-80
2023/11/13 03:42:41;;;;;;;9.43;2.03;;;;;;;-145.69;65.43;52210.72;5116651;28;20652;-81
2023/11/13 03:45:09;;;;;;;5.70;1.60;;;;;;;-145.69;64.88;52234.47;5117017;28;20229;-80
2023/11/13 03:47:36;;;;;;;11.68;1.88;;;;;;;-145.69;65.63;52244.38;5116551;28;20684;-80
2023/11/13 03:50:06;;;;;;;12.93;2.20;;;;;;;-145.69;65.86;52242.38;5116511;28;20288;-80
2023/11/13 03:52:33;;;;;;;16.17;2.27;;;;;;;-145.69;65.98;52250.31;5096179;28;20206;-80
2023/11/13 03:54:59;;;;;;;15.23;2.17;;;;;;;-145.69;65.26;52252.28;5096114;28;20600;-80
2023/11/13 03:57:29;;;;;;;13.40;1.83;;;;;;;-145.69;65.51;52258.22;5096320;28;20209;-79
2023/11/13 03:59:58;;;;;;;13.60;1.80;;;;;;;-145.69;65.78;52258.22;5096292;28;20202;-80
2023/11/13 04:02:26;;;;;;;12.77;2.35;;;;;;;-145.69;65.56;52250.31;5096063;28;20205;-80
2023/11/13 04:04:54;;;;;;;7.93;2.40;;;;;;;-145.69;64.93;52226.53;5095988;28;20216;-81
2023/11/13 04:07:24;;;;;;;6.35;1.90;;;;;;;-145.69;65.20;52278.03;5095199;28;20242;-80
2023/11/13 04:09:50;;;;;;;17.65;2.40;;;;;;;-145.69;64.69;52280.00;5112019;28;20193;-80
2023/11/13 04:12:17;;;;;;;18.67;2.50;;;;;;;-145.69;64.78;52234.47;5114919;28;20194;-80
2023/11/13 04:14:45;;;;;;;14.90;2.67;;;;;;;-145.69;64.06;52260.22;5113605;28;20197;-80
2023/11/13 04:17:12;;;;;;;15.90;2.42;;;;;;;-145.69;64.45;52242.38;5114796;28;20204;-80
2023/11/13 04:19:38;;;;;;;16.85;2.78;;;;;;;-145.69;64.01;52238.44;5114946;28;20288;-80
2023/11/13 04:22:06;;;;;;;12.37;2.50;;;;;;;-145.69;64.17;52258.22;5114928;28;20197;-80
2023/11/13 04:24:34;;;;;;;13.13;2.83;;;;;;;-145.69;63.68;52246.34;5114405;28;20683;-79
2023/11/13 04:27:01;;;;;;;10.55;2.00;;;;;;;-145.69;63.36;52238.44;5114840;28;20229;-80
2023/11/13 04:29:29;;;;;;;11.85;1.90;;;;;;;-145.69;63.00;52246.34;5114695;28;20293;-80
2023/11/13 04:31:56;;;;;;;10.68;2.17;;;;;;;-145.69;63.10;52218.63;5113367;28;20189;-80
2023/11/13 04:34:22;;;;;;;12.50;2.20;;;;;;;-145.69;63.59;52246.34;5113080;28;20664;-79
2023/11/13 04:36:49;;;;;;;13.77;2.25;;;;;;;-145.69;63.61;52234.47;5114273;28;20193;-79
2023/11/13 04:39:16;;;;;;;9.98;1.65;;;;;;;-145.69;63.62;52226.53;5114364;28;20227;-79
2023/11/13 04:41:44;;;;;;;8.63;2.10;;;;;;;-145.69;63.85;52250.31;5114189;28;20692;-79
2023/11/13 04:44:10;;;;;;;14.60;2.10;;;;;;;-145.69;64.14;52250.31;5114333;28;20563;-79
2023/11/13 04:46:40;;;;;;;13.40;2.10;;;;;;;-145.69;63.41;52226.53;5114260;28;20225;-80
2023/11/13 04:49:07;;;;;;;11.85;2.00;;;;;;;-145.69;63.64;52260.22;5114288;28;20656;-80
2023/11/13 04:51:34;;;;;;;23.33;3.10;;;;;;;-145.69;63.32;52244.38;5114642;28;20208;-80
2023/11/13 04:54:01;;;;;;;18.05;2.33;;;;;;;-145.69;63.28;52244.38;5114297;28;20204;-79
2023/11/13 04:56:27;;;;;;;17.90;2.95;;;;;;;-145.69;64.23;52254.28;5113455;28;20836;-79
2023/11/13 04:58:55;;;;;;;22.83;3.50;;;;;;;-145.69;62.75;52258.22;5114345;28;20582;-79
2023/11/13 05:01:22;;;;;;;15.13;2.45;;;;;;;-145.69;62.42;52254.28;5114107;28;20204;-79
2023/11/13 05:03:48;;;;;;;16.15;3.03;;;;;;;-145.69;62.02;52250.31;5098259;28;20202;-80
2023/11/13 05:06:15;;;;;;;18.80;2.90;;;;;;;-145.69;62.25;52220.59;5065699;28;1060374;-79
2023/11/13 05:08:43;;;;;;;14.15;2.97;;;;;;;-145.69;61.54;52246.34;5115134;28;20193;-80
2023/11/13 05:11:20;;;;;;;13.63;2.33;;;;;;;-145.69;61.67;52262.19;5115224;28;20201;-80
2023/11/13 05:13:47;;;;;;;20.70;2.97;;;;;;;-145.69;61.19;52246.34;5115291;28;20258;-79
2023/11/13 05:16:19;;;;;;;12.90;2.28;;;;;;;-145.69;61.16;52210.72;5114915;28;20197;-80
2023/11/13 05:18:46;;;;;;;16.48;2.58;;;;;;;-145.69;61.45;52234.47;5115143;28;20205;-80
2023/11/13 05:21:13;;;;;;;11.35;2.30;;;;;;;-145.69;61.36;52250.31;5114882;28;20713;-80
2023/11/13 05:23:39;;;;;;;12.82;2.17;;;;;;;-145.69;61.31;52278.03;5114936;28;20556;-79
2023/11/13 05:26:07;;;;;;;16.30;3.13;;;;;;;-145.69;61.05;52258.22;5114839;28;20632;-79
2023/11/13 05:28:33;;;;;;;13.88;2.88;;;;;;;-145.69;61.44;52254.28;5115019;28;20201;-79
2023/11/13 05:31:00;;;;;;;17.38;2.53;;;;;;;-145.69;60.94;52244.38;5114344;28;20198;-79
2023/11/13 05:33:29;;;;;;;16.35;3.13;;;;;;;-145.69;60.72;52234.47;5114867;28;20194;-79
2023/11/13 05:35:56;;;;;;;18.60;2.70;;;;;;;-145.69;60.61;52230.50;5113507;28;20193;-80
2023/11/13 05:38:23;;;;;;;13.00;2.55;;;;;;;-145.69;60.36;52238.44;5114066;28;20197;-79
2023/11/13 05:40:50;;;;;;;13.60;1.90;;;;;;;-145.69;60.16;52214.66;5114445;28;20205;-79
2023/11/13 05:43:17;;;;;;;11.77;1.50;;;;;;;-145.69;59.38;52274.06;5114734;28;20299;-80
2023/11/13 05:45:44;;;;;;;13.30;1.83;;;;;;;-145.69;58.82;52270.13;5114342;28;20683;-80
2023/11/13 05:48:11;;;;;;;15.30;1.97;;;;;;;-145.69;58.95;52252.28;5114290;28;20235;-80
2023/11/13 05:50:39;;;;;;;10.27;1.73;;;;;;;-145.69;58.51;52218.63;5114403;28;20194;-80
2023/11/13 05:53:05;;;;;;;11.10;1.48;;;;;;;-145.69;58.53;52248.34;5114165;28;20194;-80
2023/11/13 05:55:32;;;;;;;7.13;1.63;;;;;;;-145.69;58.98;52240.41;5114424;28;20205;-79
2023/11/13 05:57:58;;;;;;;6.68;1.55;;;;;;;-145.69;58.73;52254.28;5114101;28;20193;-79
2023/11/13 06:00:25;;;;;;;7.13;1.30;;;;;;;-145.69;58.73;52274.06;5113540;28;20193;-79
2023/11/13 06:02:52;;;;;;;5.15;1.30;;;;;;;-145.69;58.64;52242.38;5114281;28;20301;-79
2023/11/13 06:05:19;;;;;;;9.80;1.40;;;;;;;-145.69;58.87;52282.00;5114114;28;20209;-79
2023/11/13 06:07:47;;;;;;;4.20;1.27;;;;;;;-145.69;59.40;52226.53;5113826;28;20245;-79
2023/11/13 06:10:14;;;;;;;6.03;1.20;;;;;;;-145.69;59.21;52246.34;5113454;28;20199;-78
2023/11/13 06:12:41;;;;;;;5.07;1.33;;;;;;;-145.69;59.87;52285.97;5113652;28;20270;-79
2023/11/13 06:15:13;;;;;;;4.00;1.13;;;;;;;-145.69;59.88;52248.34;5113840;28;20537;-79
2023/11/13 06:17:40;;;;;;;4.20;1.40;;;;;;;-145.69;60.35;52252.28;5113899;28;20225;-79
2023/11/13 06:20:08;;;;;;;7.40;1.43;;;;;;;-145.69;60.62;52258.22;5113354;28;20193;-79
2023/11/13 06:22:34;;;;;;;6.73;1.60;;;;;;;-145.69;60.59;52266.16;5113555;28;20197;-79
2023/11/13 06:25:04;;;;;;;3.33;1.23;;;;;;;-145.69;60.79;52248.34;5113812;28;20205;-79
2023/11/13 06:27:30;;;;;;;7.40;1.40;;;;;;;-145.69;61.34;52246.34;5112996;28;20257;-80
2023/11/13 06:29:57;;;;;;;5.78;1.63;;;;;;;-145.69;61.58;52264.16;5113438;28;20211;-79
2023/11/13 06:32:23;;;;;;;4.73;1.20;;;;;;;-145.69;61.86;52254.28;5113122;28;20190;-80
2023/11/13 06:34:50;;;;;;;7.03;1.90;;;;;;;-145.69;62.14;52242.38;5113351;28;20224;-79
2023/11/13 06:37:16;;;;;;;6.07;1.67;;;;;;;-145.69;62.42;52234.47;5113728;28;20201;-80
2023/11/13 06:39:44;;;;;;;6.00;1.77;;;;;;;-145.69;62.26;52246.34;5113453;28;20677;-79
2023/11/13 06:42:12;;;;;;;6.60;1.80;;;;;;;-145.69;62.56;52280.00;5113331;28;20671;-80
2023/11/13 06:44:39;;;;;;;6.00;1.57;;;;;;;-145.69;62.03;52256.25;5113184;28;20197;-80
2023/11/13 06:47:06;;;;;;;7.33;1.17;;;;;;;-145.69;62.01;52293.88;5113248;28;20290;-80
2023/11/13 06:49:32;;;;;;;3.77;0.97;;;;;;;-145.69;62.77;52234.47;5113396;28;20209;-80
2023/11/13 06:51:59;;;;;;;4.93;1.40;;;;;;;-145.69;62.43;52250.31;5113235;28;20641;-80
2023/11/13 06:54:25;;;;;;;7.67;1.30;;;;;;;-145.69;63.24;52274.06;5113361;28;20300;-80
2023/11/13 06:56:52;;;;;;;1.70;1.07;;;;;;;-145.69;63.35;52224.56;5111125;28;20209;-79
2023/11/13 06:59:20;;;;;;;2.67;1.33;;;;;;;-145.69;63.15;52270.13;5094027;28;20198;-79
2023/11/13 07:01:47;;;;;;;3.27;1.30;;;;;;;-145.69;63.46;52254.28;5108898;28;20200;-79
2023/11/13 07:04:14;;;;;;;4.73;1.10;;;;;;;-145.69;63.58;52238.44;5113478;28;20199;-80
2023/11/13 07:06:42;;;;;;;5.30;1.20;;;;;;;-145.69;63.44;52258.22;5112840;28;20641;-80
2023/11/13 07:09:10;;;;;;;4.07;1.20;;;;;;;-145.69;63.24;52264.16;5113116;28;20190;-80
2023/11/13 07:11:42;;;;;;;5.60;1.50;;;;;;;-145.69;63.67;52262.19;5113065;28;20204;-79
2023/11/13 07:14:09;;;;;;;5.00;1.17;;;;;;;-145.69;63.71;52252.28;5108103;28;20196;-79
2023/11/13 07:16:37;;;;;;;3.17;1.00;;;;;;;-145.69;63.92;52276.06;5112905;28;20233;-80
2023/11/13 07:19:04;;;;;;;5.40;1.53;;;;;;;-145.69;64.20;52210.72;5113192;28;20201;-81
2023/11/13 07:21:31;;;;;;;5.50;1.50;;;;;;;-145.69;64.04;52234.47;5113286;28;20193;-80
2023/11/13 07:23:58;;;;;;;2.37;0.90;;;;;;;-145.69;64.11;52258.22;5113085;28;20247;-80
2023/11/13 07:26:24;;;;;;;3.70;1.10;;;;;;;-145.69;64.45;52287.94;5113262;28;20197;-79
2023/11/13 07:28:51;;;;;;;5.43;1.17;;;;;;;-145.69;64.54;52238.44;5112874;28;20320;-80
2023/11/13 07:31:19;;;;;;;10.57;3.60;;;;;;;-145.69;64.80;52254.28;5112715;28;20196;-80
2023/11/13 07:33:47;;;;;;;5.30;1.30;;;;;;;-145.69;64.54;52258.22;5112989;28;20194;-80
2023/11/13 07:36:14;;;;;;;4.27;1.20;;;;;;;-145.69;64.58;52260.22;5112729;28;20681;-80
2023/11/13 07:38:43;;;;;;;5.17;1.07;;;;;;;-145.69;64.64;52258.22;5112920;28;20197;-79
2023/11/13 07:41:11;;;;;;;3.30;1.03;;;;;;;-145.69;64.84;52246.34;5112751;28;20204;-80
2023/11/13 07:43:39;;;;;;;3.63;1.00;;;;;;;-145.69;64.86;52230.50;5112129;28;20247;-79
2023/11/13 07:46:07;;;;;;;2.33;0.80;;;;;;;-145.69;64.92;52208.72;5112377;28;20194;-80
2023/11/13 07:48:34;;;;;;;1.27;0.80;;;;;;;-145.69;65.40;52262.19;5112703;28;20229;-79
2023/11/13 07:51:02;;;;;;;4.20;1.43;;;;;;;-145.69;65.07;52252.28;5112974;28;20271;-79
2023/11/13 07:53:29;;;;;;;2.27;1.03;;;;;;;-145.69;65.51;52280.00;5112992;28;20206;-79
2023/11/13 07:55:56;;;;;;;3.13;1.17;;;;;;;-145.69;65.33;52246.34;5112986;28;20201;-80
2023/11/13 07:58:25;;;;;;;4.23;0.90;;;;;;;-145.69;65.81;52274.06;5113062;28;20193;-80
2023/11/13 08:00:53;;;;;;;3.50;1.17;;;;;;;-145.69;66.16;52246.34;5115587;28;20198;-80
2023/11/13 08:03:19;;;;;;;0.90;0.80;;;;;;;-145.69;66.53;52262.19;5116077;28;20197;-80
2023/11/13 08:05:47;;;;;;;1.27;0.85;;;;;;;-145.69;66.53;52222.59;5115990;28;20197;-79
2023/11/13 08:08:16;;;;;;;2.30;1.10;;;;;;;-145.69;66.83;52246.34;5115868;27;20225;-79
2023/11/13 08:10:43;;;;;;;1.37;1.03;;;;;;;-145.69;67.47;52240.41;5116260;28;20209;-79
2023/11/13 08:13:10;;;;;;;1.70;1.00;;;;;;;-145.69;68.02;52250.31;5116031;28;20269;-79
2023/11/13 08:15:37;;;;;;;2.08;1.27;;;;;;;-145.69;67.58;52240.41;5116296;28;20193;-80
2023/11/13 08:18:04;;;;;;;2.80;1.02;;;;;;;-145.69;67.22;52272.09;5115386;28;20284;-79
2023/11/13 08:20:31;;;;;;;1.42;1.02;;;;;;;-145.69;66.85;52270.13;5115979;28;20204;-79
2023/11/13 08:22:57;;;;;;;1.40;0.90;;;;;;;-145.69;67.35;52268.13;5115962;28;20197;-78
2023/11/13 08:25:25;;;;;;;3.08;1.10;;;;;;;-145.69;66.88;52226.53;5116122;28;20236;-78
2023/11/13 08:27:52;;;;;;;2.58;1.13;;;;;;;-145.69;66.18;52238.44;5115733;28;20217;-78
2023/11/13 08:30:22;;;;;;;2.47;1.10;;;;;;;-145.69;65.27;52228.53;5115877;28;20548;-78
2023/11/13 08:32:49;;;;;;;2.42;1.25;;;;;;;-145.69;64.51;52242.38;5115578;28;20207;-78
2023/11/13 08:35:15;;;;;;;4.05;1.50;;;;;;;-145.69;64.16;52226.53;5115375;28;20204;-78
2023/11/13 08:37:43;;;;;;;4.80;1.30;;;;;;;-145.69;63.49;52200.81;5115701;28;20197;-78
2023/11/13 08:40:12;;;;;;;3.20;1.10;;;;;;;-145.69;63.06;52246.34;5115284;28;20205;-79
2023/11/13 08:42:41;;;;;;;3.50;0.90;;;;;;;-145.69;62.76;52208.72;5115589;28;20208;-78
2023/11/13 08:45:12;;;;;;;4.00;1.45;;;;;;;-145.69;62.94;52220.59;5115669;28;20209;-79
2023/11/13 08:47:39;;;;;;;1.67;0.90;;;;;;;-145.69;62.18;52198.81;5115561;28;20225;-78
2023/11/13 08:50:08;;;;;;;5.63;1.40;;;;;;;-145.69;61.56;52194.88;5115087;28;20284;-79
2023/11/13 08:52:35;;;;;;;7.13;1.30;;;;;;;-145.69;61.11;52169.13;5115079;28;20193;-78
2023/11/13 08:55:02;;;;;;;3.63;1.20;;;;;;;-145.69;60.81;52198.81;5115405;28;20189;-79
2023/11/13 08:57:29;;;;;;;5.38;1.55;;;;;;;-145.69;59.54;52190.91;5115269;28;20198;-80
2023/11/13 08:59:57;;;;;;;6.47;1.55;;;;;;;-145.69;59.91;52196.84;5115325;28;20197;-79
2023/11/13 09:02:25;;;;;;;6.15;1.65;;;;;;;-145.69;59.38;52186.94;5107872;28;20606;-80
2023/11/13 09:04:52;;;;;;;5.47;1.30;;;;;;;-145.69;58.82;52212.69;5115246;28;20254;-80
2023/11/13 09:07:19;;;;;;;5.75;1.42;;;;;;;-145.69;58.39;52228.53;5115160;28;20262;-79
2023/11/13 09:09:45;;;;;;;11.52;1.35;;;;;;;-145.69;58.40;52192.88;5115175;28;20284;-80
2023/11/13 09:12:12;;;;;;;8.60;1.27;;;;;;;-145.69;58.41;52196.84;5113779;28;20284;-79
2023/11/13 09:14:39;;;;;;;6.40;1.83;;;;;;;-145.69;58.07;52186.94;5115230;28;20242;-79
2023/11/13 09:17:12;;;;;;;8.15;2.33;;;;;;;-145.69;58.03;52175.06;5115016;28;20194;-79
2023/11/13 09:19:40;;;;;;;7.43;1.70;;;;;;;-145.69;57.78;52196.84;5115044;28;20648;-80
2023/11/13 09:22:09;;;;;;;9.13;1.85;;;;;;;-145.69;58.18;52192.88;5114908;28;20292;-80
2023/11/13 09:24:38;;;;;;;8.48;1.45;;;;;;;-145.69;58.27;52190.91;5114440;28;20689;-80
2023/11/13 09:27:05;;;;;;;14.50;3.38;;;;;;;-145.69;58.68;52190.91;5114961;28;20254;-81
2023/11/13 09:29:32;;;;;;;15.63;3.47;;;;;;;-145.69;57.97;52202.78;5114810;28;20272;-80
2023/11/13 09:31:58;;;;;;;12.07;2.75;;;;;;;-145.69;57.85;52186.94;5114287;28;20555;-80
2023/11/13 09:34:27;;;;;;;9.68;2.90;;;;;;;-145.69;58.08;52212.69;5114720;28;20683;-79
2023/11/13 09:36:54;;;;;;;10.20;1.92;;;;;;;-145.69;57.43;52177.03;5114786;28;20201;-79
2023/11/13 09:39:20;;;;;;;9.57;1.42;;;;;;;-145.69;57.00;52186.94;5113824;28;20189;-79
2023/11/13 09:41:50;;;;;;;5.60;1.92;;;;;;;-145.69;56.67;52177.03;5114255;28;20204;-80
2023/11/13 09:44:20;;;;;;;9.52;1.88;;;;;;;-145.69;57.26;52131.50;5113550;28;20480;-79
2023/11/13 09:46:48;;;;;;;9.27;1.70;;;;;;;-145.69;56.27;52179.03;5114318;28;20296;-79
2023/11/13 09:49:19;;;;;;;7.78;1.67;;;;;;;-145.69;56.17;52169.13;5114556;28;20240;-80
2023/11/13 09:51:48;;;;;;;7.47;1.50;;;;;;;-145.69;56.38;52186.94;5114265;28;20197;-80
2023/11/13 09:54:17;;;;;;;12.07;1.38;;;;;;;-145.69;55.99;52163.19;5113885;28;20194;-80
2023/11/13 09:56:44;;;;;;;9.27;2.10;;;;;;;-145.69;56.12;52145.34;5114295;28;20225;-79
2023/11/13 09:59:12;;;;;;;5.35;1.60;;;;;;;-145.69;56.65;52167.13;5114262;28;20206;-79
2023/11/13 10:01:40;;;;;;;13.93;1.85;;;;;;;-145.69;56.77;52173.09;5113833;28;20194;-79
2023/11/13 10:04:06;;;;;;;8.88;1.48;;;;;;;-145.69;57.38;52196.84;5114231;28;20606;-80
2023/11/13 10:06:36;;;;;;;6.95;1.67;;;;;;;-145.69;57.59;52202.78;5114013;28;20236;-80
2023/11/13 10:09:04;;;;;;;8.68;1.33;;;;;;;-145.69;57.66;52155.25;5113810;28;20252;-81
2023/11/13 10:11:32;;;;;;;4.30;1.33;;;;;;;-145.69;57.84;52190.91;5113602;28;20193;-80
2023/11/13 10:14:11;;;;;;;10.57;1.63;;;;;;;-145.69;57.89;52171.09;5112709;28;20240;-80
2023/11/13 10:16:38;;;;;;;6.75;1.70;;;;;;;-145.69;58.00;52190.91;5111324;27;20556;-81
2023/11/13 10:19:15;;;;;;;7.32;1.75;;;;;;;-145.69;57.83;52188.91;5119743;27;20624;-80
2023/11/13 10:21:41;;;;;;;6.90;1.60;;;;;;;-145.69;58.48;52151.28;5121501;27;20672;-80
2023/11/13 10:24:19;;;;;;;6.13;1.60;;;;;;;-145.69;58.52;52159.22;5112547;28;20193;-79
2023/11/13 10:26:49;;;;;;;10.40;1.42;;;;;;;-145.69;58.65;52186.94;5113131;28;20200;-80
2023/11/13 10:29:20;;;;;;;8.07;1.60;;;;;;;-145.69;58.78;52186.94;5113184;28;20229;-80
2023/11/13 10:31:48;;;;;;;9.15;1.88;;;;;;;-145.69;58.23;52190.91;5112953;28;20247;-81
2023/11/13 10:34:14;;;;;;;7.07;1.90;;;;;;;-145.69;58.37;52159.22;5113502;28;20201;-81
2023/11/13 10:36:43;;;;;;;7.03;2.13;;;;;;;-145.69;58.78;52216.66;5113423;28;20209;-81
2023/11/13 10:39:15;;;;;;;5.50;1.90;;;;;;;-145.69;59.29;52188.91;5113300;28;20194;-80
2023/11/13 10:41:46;;;;;;;8.55;2.10;;;;;;;-145.69;58.56;52192.88;5113235;28;20200;-80
2023/11/13 10:44:27;;;;;;;5.10;1.80;;;;;;;-145.69;58.26;52175.06;5113535;28;20205;-82
2023/11/13 10:46:54;;;;;;;7.65;1.98;;;;;;;-145.69;58.96;52210.72;5112831;28;20204;-82
2023/11/13 10:49:20;;;;;;;18.88;6.68;;;;;;;-145.69;58.92;52192.88;5113265;28;20221;-81
2023/11/13 10:51:49;;;;;;;8.52;2.70;;;;;;;-145.69;59.33;52208.72;5113259;28;20201;-82
2023/11/13 10:54:16;;;;;;;8.07;2.08;;;;;;;-145.69;59.01;52159.22;5111921;28;20707;-83
2023/11/13 10:56:48;;;;;;;9.00;1.58;;;;;;;-145.69;59.04;52175.06;5113054;28;20221;-81
2023/11/13 10:59:15;;;;;;;7.57;1.90;;;;;;;-145.69;59.41;52186.94;5094024;28;20237;-82
2023/11/13 11:01:44;;;;;;;4.85;1.35;;;;;;;-145.69;60.04;52179.03;5100618;28;20201;-82
2023/11/13 11:04:12;;;;;;;3.63;1.30;;;;;;;-145.69;60.30;52175.06;5125226;28;20299;-81
2023/11/13 11:06:41;;;;;;;6.78;1.50;;;;;;;-145.69;60.18;52182.97;5120128;28;20240;-81
2023/11/13 11:09:12;;;;;;;4.57;1.40;;;;;;;-145.69;60.55;52190.91;5112186;28;20221;-82
2023/11/13 11:11:41;;;;;;;5.50;1.75;;;;;;;-145.69;60.74;52188.91;5113296;28;20560;-82
2023/11/13 11:14:16;;;;;;;8.07;1.38;;;;;;;-145.69;60.18;52194.88;5112366;28;20198;-80
2023/11/13 11:16:46;;;;;;;4.47;1.50;;;;;;;-145.69;60.66;52177.03;5113035;28;20192;-81